KPGV/PGV METAR and TAF weather

Enter ICAO airport designator
Station Type Date Time Source
KPGV METAR 2019/02/16 07:15 UTC NOAA

KPGV 160715Z AUTO 24003KT 10SM CLR 14/11 A2982 RMK AO2


Station Type Date Time Source
KPGV Decoded METAR 2019/02/16 07:15 UTC NOAA

Pitt-Greenville Airport, NC, United States (KPGV) 35-38N 077-24W
Feb 16, 2019 - 02:15 AM EST / 2019.02.16 0715 UTC
Wind: from the WSW (240 degrees) at 3 MPH (3 KT):0
Visibility: 10 mile(s):0
Sky conditions: clear
Temperature: 57 F (14 C)
Dew Point: 51 F (11 C)
Relative Humidity: 82%
Pressure (altimeter): 29.82 in. Hg (1009 hPa)
ob: KPGV 160715Z AUTO 24003KT 10SM CLR 14/11 A2982 RMK AO2
cycle: 7

Station Type Date Time Source
KPGV TAF 2019/02/16 06:36 UTC NOAA

TAF KPGV 160533Z 1606/1706 23005KT P6SM SCT003 BKN110
FM160730 22005KT P6SM OVC030
FM160900 21005KT 6SM -RA OVC007
FM161200 04010G15KT 3SM RA OVC007
FM161800 02010G15KT P6SM BKN007
FM170300 01005KT P6SM BKN015
AMD LTD TO CLD VIS AND WIND


Example: see airport list